createdAt,value
2019-05-30T00:05:04.785Z,8.23
2019-05-30T00:10:26.564Z,9.58
2019-05-30T00:15:48.795Z,11.15
2019-05-30T00:21:10.512Z,11.08
2019-05-30T00:26:32.463Z,8.78
2019-05-30T00:31:55.480Z,10.20
2019-05-30T00:37:17.092Z,11.95
2019-05-30T00:42:39.134Z,13.88
2019-05-30T00:48:00.452Z,14.65
2019-05-30T00:53:21.969Z,14.23
2019-05-30T00:58:43.692Z,14.33
2019-05-30T01:04:05.281Z,14.38
2019-05-30T01:09:27.139Z,13.70
2019-05-30T01:14:48.785Z,12.37
2019-05-30T01:20:10.710Z,12.13
2019-05-30T01:25:32.371Z,12.70
2019-05-30T01:31:01.195Z,10.25
2019-05-30T01:36:18.309Z,11.75
2019-05-30T01:41:39.651Z,13.70
2019-05-30T01:47:02.003Z,12.33
2019-05-30T01:52:23.711Z,13.32
2019-05-30T01:57:45.412Z,12.82
2019-05-30T02:03:07.434Z,13.50
2019-05-30T02:08:29.848Z,15.72
2019-05-30T02:13:51.430Z,14.15
2019-05-30T02:19:13.204Z,16.57
2019-05-30T02:24:35.249Z,14.03
2019-05-30T02:29:56.933Z,14.75
2019-05-30T02:35:18.990Z,14.23
2019-05-30T02:40:41.111Z,15.80
2019-05-30T02:46:03.532Z,14.03
2019-05-30T02:51:26.034Z,21.23
2019-05-30T02:56:47.750Z,17.77
2019-05-30T03:02:14.644Z,13.93
2019-05-30T03:07:32.924Z,16.62
2019-05-30T03:12:54.642Z,13.90
2019-05-30T03:18:16.279Z,16.35
2019-05-30T03:23:38.165Z,14.43
2019-05-30T03:28:59.889Z,12.37
2019-05-30T03:34:27.786Z,15.63
2019-05-30T03:39:45.081Z,14.15
2019-05-30T03:45:10.694Z,14.83
2019-05-30T03:50:33.331Z,15.55
2019-05-30T03:56:01.570Z,17.98
2019-05-30T04:01:28.585Z,15.50
2019-05-30T04:06:54.586Z,6.15
2019-05-30T04:12:57.098Z,7.53
2019-05-30T04:18:19.541Z,14.83
2019-05-30T04:23:41.524Z,13.65
2019-05-30T04:29:03.067Z,15.65
2019-05-30T04:34:24.761Z,13.78
2019-05-30T04:39:46.998Z,13.25
2019-05-30T04:45:10.100Z,15.35
2019-05-30T04:50:33.479Z,17.50
2019-05-30T04:55:58.729Z,15.48
2019-05-30T05:01:22.102Z,17.57
2019-05-30T05:06:43.966Z,17.45
2019-05-30T05:12:05.624Z,15.98
2019-05-30T05:17:27.395Z,18.20
2019-05-30T05:22:48.984Z,17.55
2019-05-30T05:28:10.590Z,20.90
2019-05-30T05:33:32.489Z,13.90
2019-05-30T05:38:54.152Z,18.62
2019-05-30T05:44:16.183Z,17.92
2019-05-30T05:49:38.356Z,18.07
2019-05-30T05:55:00.096Z,17.12
2019-05-30T06:00:23.313Z,17.80
2019-05-30T06:05:52.979Z,16.10
2019-05-30T06:11:11.368Z,18.07
2019-05-30T06:16:32.963Z,26.10
2019-05-30T06:21:54.779Z,26.73
2019-05-30T06:27:17.754Z,21.90
2019-05-30T06:32:39.681Z,17.98
2019-05-30T06:38:01.218Z,13.80
2019-05-30T06:43:24.368Z,12.53
2019-05-30T06:48:46.557Z,15.10
2019-05-30T06:54:08.832Z,14.70
2019-05-30T06:59:30.448Z,12.33
2019-05-30T07:04:53.013Z,13.28
2019-05-30T07:10:15.165Z,12.95
2019-05-30T07:15:36.813Z,13.30
2019-05-30T07:20:58.247Z,13.68
2019-05-30T07:26:20.007Z,13.62
2019-05-30T07:31:41.313Z,11.48
2019-05-30T07:37:03.473Z,14.28
2019-05-30T07:42:24.922Z,11.08
2019-05-30T07:47:46.466Z,12.70
2019-05-30T07:53:08.312Z,12.05
2019-05-30T07:58:29.646Z,13.98
2019-05-30T08:03:51.516Z,11.97
2019-05-30T08:09:12.977Z,9.68
2019-05-30T08:14:35.374Z,10.98
2019-05-30T08:19:56.698Z,10.50
2019-05-30T08:25:18.446Z,13.20
2019-05-30T08:30:40.017Z,10.78
2019-05-30T08:36:05.553Z,12.63
2019-05-30T08:41:25.824Z,9.93
2019-05-30T08:46:47.906Z,12.85
2019-05-30T08:52:09.860Z,8.50
2019-05-30T08:57:32.336Z,7.17
2019-05-30T09:02:54.475Z,8.63
2019-05-30T09:08:16.256Z,7.28
2019-05-30T09:13:38.899Z,6.03
2019-05-30T09:19:00.947Z,6.12
2019-05-30T09:24:22.472Z,9.45
2019-05-30T09:29:44.715Z,7.17
2019-05-30T09:35:07.100Z,6.45
2019-05-30T09:40:30.277Z,9.10
2019-05-30T09:45:52.009Z,8.38
2019-05-30T09:51:13.953Z,8.15
2019-05-30T09:56:35.361Z,6.35
2019-05-30T10:01:57.030Z,6.42
2019-05-30T10:07:18.894Z,7.03
2019-05-30T10:12:40.658Z,6.50
2019-05-30T10:18:02.191Z,6.83
2019-05-30T10:23:24.008Z,6.33
2019-05-30T10:28:46.424Z,6.03
2019-05-30T10:34:09.532Z,5.75
2019-05-30T10:39:31.307Z,7.30
2019-05-30T10:44:54.565Z,4.35
2019-05-30T10:50:17.108Z,5.95
2019-05-30T10:55:38.979Z,7.42
2019-05-30T11:01:00.703Z,6.58
2019-05-30T11:07:04.850Z,9.65
2019-05-30T11:12:11.685Z,8.23
2019-05-30T11:17:33.411Z,8.58
2019-05-30T11:22:56.372Z,6.20
2019-05-30T11:28:18.435Z,8.00
2019-05-30T11:33:40.371Z,7.87
2019-05-30T11:39:02.051Z,6.85
2019-05-30T11:44:23.891Z,7.15
2019-05-30T11:49:45.430Z,7.35
2019-05-30T11:55:07.352Z,7.85
2019-05-30T12:00:28.990Z,6.90
2019-05-30T12:05:51.020Z,6.20
2019-05-30T12:11:12.969Z,9.50
2019-05-30T12:16:34.723Z,9.98
2019-05-30T12:21:57.671Z,7.25
2019-05-30T12:27:19.191Z,8.88
2019-05-30T12:32:40.597Z,7.42
2019-05-30T12:38:05.958Z,9.70
2019-05-30T12:43:25.972Z,7.83
2019-05-30T12:48:49.033Z,7.75
2019-05-30T12:54:10.755Z,6.87
2019-05-30T12:59:32.294Z,10.50
2019-05-30T13:04:54.729Z,6.62
2019-05-30T13:10:18.189Z,9.43
2019-05-30T13:15:39.790Z,9.68
2019-05-30T13:21:02.167Z,7.83
2019-05-30T13:26:24.100Z,9.48
2019-05-30T13:31:45.853Z,8.83
2019-05-30T13:37:07.359Z,7.47
2019-05-30T13:42:28.844Z,9.60
2019-05-30T13:47:50.668Z,9.53
2019-05-30T13:53:12.223Z,7.00
2019-05-30T13:58:33.808Z,10.45
2019-05-30T14:03:55.517Z,8.80
2019-05-30T14:09:17.137Z,8.30
2019-05-30T14:14:39.007Z,5.80
2019-05-30T14:20:01.106Z,6.92
2019-05-30T14:25:22.882Z,6.67
2019-05-30T14:30:44.540Z,6.05
2019-05-30T14:36:10.209Z,6.85
2019-05-30T14:41:30.779Z,5.33
2019-05-30T14:46:52.523Z,8.25
2019-05-30T14:52:14.270Z,7.80
2019-05-30T14:57:41.437Z,6.12
2019-05-30T15:03:03.265Z,5.78
2019-05-30T15:08:25.112Z,6.65
2019-05-30T15:13:46.427Z,7.25
2019-05-30T15:19:08.127Z,5.75
2019-05-30T15:24:30.067Z,6.10
2019-05-30T15:29:51.707Z,5.75
2019-05-30T15:35:15.202Z,5.28
2019-05-30T15:40:37.029Z,5.28
2019-05-30T15:45:58.837Z,6.17
2019-05-30T15:51:21.462Z,5.03
2019-05-30T15:56:43.530Z,5.90
2019-05-30T16:02:05.434Z,7.60
2019-05-30T16:07:27.234Z,4.80
2019-05-30T16:12:48.959Z,3.98
2019-05-30T16:18:11.620Z,6.78
2019-05-30T16:23:33.478Z,5.67
2019-05-30T16:28:55.476Z,5.28
2019-05-30T16:34:18.063Z,5.45
2019-05-30T16:39:42.792Z,6.82
2019-05-30T16:45:06.119Z,6.15
2019-05-30T16:50:27.619Z,7.20
2019-05-30T16:55:49.648Z,4.55
2019-05-30T17:01:11.269Z,6.45
2019-05-30T17:06:32.589Z,7.65
2019-05-30T17:11:54.588Z,4.60
2019-05-30T17:17:16.347Z,5.03
2019-05-30T17:22:38.702Z,7.12
2019-05-30T17:28:00.034Z,4.25
2019-05-30T17:33:23.423Z,5.75
2019-05-30T17:38:46.365Z,7.90
2019-05-30T17:44:08.033Z,7.53
2019-05-30T17:49:30.032Z,5.25
2019-05-30T17:54:51.891Z,5.47
2019-05-30T18:00:14.763Z,7.03
2019-05-30T18:05:37.329Z,7.22
2019-05-30T18:10:59.303Z,8.23
2019-05-30T18:16:21.118Z,6.60
2019-05-30T18:21:42.960Z,8.15
2019-05-30T18:27:04.755Z,6.40
2019-05-30T18:32:26.394Z,7.53
2019-05-30T18:37:48.237Z,9.70
2019-05-30T18:43:10.174Z,10.58
2019-05-30T18:48:31.921Z,7.45
2019-05-30T18:53:53.631Z,9.65
2019-05-30T18:59:15.495Z,10.03
2019-05-30T19:04:37.123Z,8.30
2019-05-30T19:09:58.953Z,8.50
2019-05-30T19:15:21.073Z,8.53
2019-05-30T19:20:42.806Z,8.43
2019-05-30T19:26:04.758Z,8.55
2019-05-30T19:31:26.448Z,12.80
2019-05-30T19:36:48.140Z,12.60
2019-05-30T19:42:10.194Z,6.55
2019-05-30T19:47:32.375Z,7.33
2019-05-30T19:52:53.853Z,6.75
2019-05-30T19:58:15.518Z,7.45
2019-05-30T20:03:43.586Z,12.82
2019-05-30T20:09:00.938Z,7.95
2019-05-30T20:14:22.324Z,8.98
2019-05-30T20:19:44.058Z,7.65
2019-05-30T20:25:05.987Z,6.92
2019-05-30T20:30:27.808Z,7.28
2019-05-30T20:35:49.366Z,6.65
2019-05-30T20:41:11.114Z,8.23
2019-05-30T20:46:32.742Z,6.72
2019-05-30T20:51:54.387Z,7.22
2019-05-30T20:57:15.981Z,7.42
2019-05-30T21:02:38.756Z,7.33
2019-05-30T21:08:05.670Z,8.95
2019-05-30T21:13:29.146Z,8.50
2019-05-30T21:18:52.253Z,7.78
2019-05-30T21:24:13.960Z,8.30
2019-05-30T21:29:36.677Z,9.03
2019-05-30T21:34:58.549Z,8.35
2019-05-30T21:40:20.089Z,8.95
2019-05-30T21:45:42.516Z,7.70
2019-05-30T21:51:03.982Z,8.53
2019-05-30T21:56:26.888Z,10.23
2019-05-30T22:01:54.832Z,8.23
2019-05-30T22:07:12.473Z,8.63
2019-05-30T22:12:34.405Z,10.15
2019-05-30T22:17:56.130Z,8.70
2019-05-30T22:23:17.783Z,8.25
2019-05-30T22:28:39.415Z,7.85
2019-05-30T22:34:01.280Z,8.00
2019-05-30T22:39:22.586Z,10.08
2019-05-30T22:44:44.465Z,8.83
2019-05-30T22:50:06.268Z,8.10
2019-05-30T22:55:28.268Z,8.78
2019-05-30T23:00:50.040Z,8.23
2019-05-30T23:06:11.957Z,6.67
2019-05-30T23:11:33.552Z,8.10
2019-05-30T23:16:56.405Z,6.58
2019-05-30T23:22:17.899Z,4.42
2019-05-30T23:27:39.500Z,5.42
2019-05-30T23:33:01.512Z,4.17
2019-05-30T23:38:23.127Z,2.40
2019-05-30T23:43:56.611Z,2.52
2019-05-30T23:49:08.620Z,3.33
2019-05-30T23:54:29.971Z,7.87
2019-05-30T23:59:52.729Z,3.05
